Quick Links (Output Below):   Max & Min Temps   /   Climate Reports   /   Zone Forecasts
River Forecasts   /   Forestry Forecasts   /   Aviation Forecasts   /   Radars   /   Features

Terminal Aerodrome Forecast (Mountain Home)

Pick a Site:
Arkadelphia | El Dorado | Fayetteville | Fort Smith | Harrison | Highfill | Hot Springs | Jonesboro
Little Rock | Monticello | Mountain Home | Pine Bluff | Texarkana
 Forecast 

KBPK 200530Z 2006/2106 VRB03KT P6SM SKC
     FM201000 00000KT 5SM BR SCT005
      TEMPO 2010/2013 2SM BR BKN005
     FM201400 21005KT P6SM SCT040
     FM210000 VRB03KT P6SM SKC=


 Latest METARs (Observations) 
How to Decode METARs
05Z KBPK 200453Z AUTO 12004KT 7SM CLR 20/18 A3003 RMK AO2 SLP160
         T02000183
         
04Z KBPK 200353Z AUTO 09003KT 7SM CLR 20/18 A3003 RMK AO2 SLP161
         T02000183
         
03Z KBPK 200253Z AUTO 12003KT 8SM CLR 21/18 A3002 RMK AO2 SLP159
         T02110183 53008
         
02Z KBPK 200153Z AUTO 11004KT 8SM CLR 22/18 A3001 RMK AO2 SLP154
         T02170183
         
01Z KBPK 200053Z AUTO 10003KT 9SM CLR 22/18 A2999 RMK AO2 SLP150
         T02220183
         
00Z KBPK 192353Z AUTO 00000KT 7SM CLR 23/19 A3000 RMK AO2 SLP151
         T02280194 10272 20228 56004
         
***** Today's Observations (Above) *****


23Z KBPK 192253Z AUTO 15003KT 8SM CLR 26/18 A3000 RMK AO2 SLP150
         T02610178
         
22Z KBPK 192153Z AUTO 00000KT 8SM FEW037 27/18 A3000 RMK AO2 SLP150
         T02670178
         
21Z KBPK 192053Z AUTO 11005KT 8SM BKN036 27/18 A3001 RMK AO2 SLP154
         T02670178 56017
         
20Z KBPK 191953Z AUTO VRB04KT 8SM CLR 26/17 A3002 RMK AO2 SLP157
         T02610172
         
***** Yesterday's Observations (Above) *****


Back to Main Page
http://www.srh.noaa.gov/lzk/qfcst.php

USA.gov is the U.S. government's official web portal to all federal, state and local government web resources and services.